Time;durP1;ratioP1;P1;durP2;ratioP2;P2;SDS_P1;SDS_P2;PMS_P1;PMS_P2;Temp;Humidity;BMP_temperature;BMP_pressure;BME280_temperature;BME280_humidity;BME280_pressure;Samples;Min_cycle;Max_cycle;Signal;HPM_P1;HPM_P2
2023/06/12 00:01:08;;;;;;;0.00;0.00;;;17.30;99.90;;;;;;5015649;28;20180;-68
2023/06/12 00:03:34;;;;;;;0.00;0.00;;;17.30;99.90;;;;;;5035619;28;20280;-68
2023/06/12 00:06:01;;;;;;;0.43;0.43;;;17.40;99.90;;;;;;5035177;28;20296;-68
2023/06/12 00:08:29;;;;;;;0.03;0.03;;;17.40;99.90;;;;;;5028891;28;20179;-69
2023/06/12 00:10:55;;;;;;;0.00;0.00;;;17.30;99.90;;;;;;5028878;28;20184;-68
2023/06/12 00:13:20;;;;;;;0.00;0.00;;;17.20;99.90;;;;;;5035620;28;20172;-69
2023/06/12 00:15:46;;;;;;;0.00;0.00;;;17.20;99.90;;;;;;5034773;28;20197;-68
2023/06/12 00:18:12;;;;;;;0.00;0.00;;;17.20;99.90;;;;;;5035206;28;20254;-67
2023/06/12 00:20:38;;;;;;;0.63;0.60;;;17.20;99.90;;;;;;5035500;28;20174;-68
2023/06/12 00:23:04;;;;;;;0.07;0.07;;;17.20;99.90;;;;;;5015719;28;20259;-66
2023/06/12 00:25:30;;;;;;;0.00;0.00;;;17.20;99.90;;;;;;5029201;28;20280;-67
2023/06/12 00:27:56;;;;;;;0.00;0.00;;;17.20;99.90;;;;;;5080685;22;20254;-68
2023/06/12 00:30:21;;;;;;;0.00;0.00;;;16.80;99.90;;;;;;5094793;28;20221;-68
2023/06/12 00:32:47;;;;;;;0.00;0.00;;;17.00;99.90;;;;;;5094624;28;20169;-68
2023/06/12 00:35:13;;;;;;;0.00;0.00;;;17.00;99.90;;;;;;5094375;28;20181;-68
2023/06/12 00:37:42;;;;;;;0.00;0.00;;;16.90;99.90;;;;;;5074184;28;20199;-68
2023/06/12 00:40:09;;;;;;;0.00;0.00;;;16.90;99.90;;;;;;5074292;28;20578;-68
2023/06/12 00:42:41;;;;;;;0.00;0.00;;;16.80;99.90;;;;;;5061143;28;20162;-68
2023/06/12 00:45:08;;;;;;;0.00;0.00;;;16.60;99.90;;;;;;5072734;28;20284;-69
2023/06/12 00:47:34;;;;;;;0.03;0.03;;;16.50;99.90;;;;;;5073987;28;20555;-69
2023/06/12 00:50:01;;;;;;;0.10;0.10;;;16.70;99.90;;;;;;5073947;28;20630;-70
2023/06/12 00:52:34;;;;;;;0.00;0.00;;;16.20;99.90;;;;;;5074048;28;20634;-69
2023/06/12 00:55:00;;;;;;;0.23;0.23;;;16.20;99.90;;;;;;5073776;28;20169;-69
2023/06/12 00:57:27;;;;;;;0.00;0.00;;;16.30;99.90;;;;;;5073806;28;20267;-69
2023/06/12 00:59:53;;;;;;;0.00;0.00;;;16.40;99.90;;;;;;5073573;28;20699;-69
2023/06/12 01:02:20;;;;;;;0.00;0.00;;;16.30;99.90;;;;;;5073651;28;20168;-68
2023/06/12 01:04:49;;;;;;;0.00;0.00;;;16.30;99.90;;;;;;5073692;28;20673;-69
2023/06/12 01:07:36;;;;;;;0.00;0.00;;;16.10;99.90;;;;;;5073640;28;20190;-69
2023/06/12 01:10:24;;;;;;;0.00;0.00;;;15.90;99.90;;;;;;5073494;28;20248;-69
2023/06/12 01:12:51;;;;;;;0.40;0.10;;;15.70;99.90;;;;;;5073607;28;20237;-69
2023/06/12 01:15:17;;;;;;;0.33;0.33;;;15.80;99.90;;;;;;5073449;28;20567;-69
2023/06/12 01:17:42;;;;;;;0.00;0.00;;;15.80;99.90;;;;;;5073402;28;20169;-69
2023/06/12 01:20:13;;;;;;;0.30;0.30;;;15.70;99.90;;;;;;5073454;28;20629;-69
2023/06/12 01:22:54;;;;;;;0.00;0.00;;;16.00;99.90;;;;;;5073381;28;20501;-69
2023/06/12 01:25:39;;;;;;;0.00;0.00;;;15.80;99.90;;;;;;5073188;28;20264;-69
2023/06/12 01:28:25;;;;;;;0.30;0.30;;;15.60;99.90;;;;;;5061471;28;20185;-68
2023/06/12 01:31:13;;;;;;;0.00;0.00;;;15.60;99.90;;;;;;5073186;28;20177;-69
2023/06/12 01:33:43;;;;;;;0.00;0.00;;;15.70;99.90;;;;;;5073132;28;20253;-69
2023/06/12 01:36:14;;;;;;;0.10;0.10;;;15.50;99.90;;;;;;5072974;28;20547;-69
2023/06/12 01:38:41;;;;;;;0.00;0.00;;;15.40;99.90;;;;;;5072894;28;20166;-68
2023/06/12 01:41:08;;;;;;;0.00;0.00;;;15.50;99.90;;;;;;5073065;28;20204;-69
2023/06/12 01:43:36;;;;;;;0.00;0.00;;;15.70;99.90;;;;;;5072902;28;20170;-69
2023/06/12 01:46:03;;;;;;;0.07;0.07;;;15.50;99.90;;;;;;5072622;28;20437;-69
2023/06/12 01:48:28;;;;;;;0.00;0.00;;;15.60;99.90;;;;;;5073191;28;20227;-69
2023/06/12 01:50:54;;;;;;;0.00;0.00;;;15.50;99.90;;;;;;5072761;28;20253;-69
2023/06/12 01:53:20;;;;;;;0.00;0.00;;;15.30;99.90;;;;;;5073130;28;20173;-69
2023/06/12 01:55:49;;;;;;;0.00;0.00;;;15.20;99.90;;;;;;5072482;28;20189;-68
2023/06/12 01:58:15;;;;;;;0.00;0.00;;;15.40;99.90;;;;;;5072630;28;20162;-69
2023/06/12 02:00:41;;;;;;;0.00;0.00;;;15.30;99.90;;;;;;5072664;28;20253;-68
2023/06/12 02:03:07;;;;;;;0.00;0.00;;;15.10;99.90;;;;;;5072713;28;20170;-68
2023/06/12 02:05:32;;;;;;;0.00;0.00;;;14.90;99.90;;;;;;5072342;28;20201;-69
2023/06/12 02:07:58;;;;;;;0.00;0.00;;;14.90;99.90;;;;;;5054943;28;20170;-69
2023/06/12 02:10:24;;;;;;;1.30;0.53;;;14.80;99.90;;;;;;5062268;28;20177;-69
2023/06/12 02:12:49;;;;;;;0.00;0.00;;;14.90;99.90;;;;;;5081457;28;20721;-69
2023/06/12 02:15:15;;;;;;;0.00;0.00;;;15.30;99.90;;;;;;5071563;28;20165;-69
2023/06/12 02:17:41;;;;;;;5.80;2.00;;;15.30;99.90;;;;;;5071068;28;20552;-68
2023/06/12 02:20:07;;;;;;;0.33;0.30;;;15.20;99.90;;;;;;5071857;28;20154;-68
2023/06/12 02:22:33;;;;;;;0.00;0.00;;;15.10;99.90;;;;;;5070858;28;20170;-69
2023/06/12 02:24:58;;;;;;;0.00;0.00;;;15.30;99.90;;;;;;5072061;28;20193;-69
2023/06/12 02:27:24;;;;;;;0.00;0.00;;;15.30;99.90;;;;;;5072006;28;20212;-69
2023/06/12 02:29:49;;;;;;;0.00;0.00;;;15.40;99.90;;;;;;5072109;28;20170;-68
2023/06/12 02:32:15;;;;;;;0.00;0.00;;;15.40;99.90;;;;;;5072106;28;20184;-69
2023/06/12 02:34:41;;;;;;;0.33;0.33;;;15.30;99.90;;;;;;5072060;28;20176;-68
2023/06/12 02:37:10;;;;;;;0.10;0.10;;;15.30;99.90;;;;;;5071993;28;20546;-69
2023/06/12 02:39:35;;;;;;;0.00;0.00;;;15.10;99.90;;;;;;5072167;28;20166;-68
2023/06/12 02:42:01;;;;;;;0.00;0.00;;;15.10;99.90;;;;;;5071876;28;20693;-68
2023/06/12 02:44:27;;;;;;;0.00;0.00;;;14.70;99.90;;;;;;5071723;28;20193;-69
2023/06/12 02:47:00;;;;;;;0.00;0.00;;;14.60;99.90;;;;;;5071700;28;20196;-68
2023/06/12 02:49:29;;;;;;;0.00;0.00;;;14.60;99.90;;;;;;5071892;28;20174;-69
2023/06/12 02:51:55;;;;;;;0.00;0.00;;;14.80;99.90;;;;;;5071738;28;20215;-69
2023/06/12 02:54:23;;;;;;;0.33;0.23;;;14.70;99.90;;;;;;5071833;28;20215;-69
2023/06/12 02:56:48;;;;;;;0.13;0.13;;;14.50;99.90;;;;;;5070390;28;20182;-69
2023/06/12 02:59:16;;;;;;;0.00;0.00;;;14.50;99.90;;;;;;5071810;28;20165;-68
2023/06/12 03:01:45;;;;;;;0.00;0.00;;;14.90;99.90;;;;;;5071735;28;20169;-69
2023/06/12 03:04:13;;;;;;;0.00;0.00;;;15.10;99.90;;;;;;5071916;28;20190;-69
2023/06/12 03:06:39;;;;;;;0.00;0.00;;;15.10;99.90;;;;;;5071740;28;20613;-68
2023/06/12 03:09:08;;;;;;;1.33;1.00;;;14.70;99.90;;;;;;5071821;28;20727;-69
2023/06/12 03:11:35;;;;;;;0.00;0.00;;;14.70;99.90;;;;;;5071737;28;20208;-68
2023/06/12 03:14:00;;;;;;;0.00;0.00;;;15.00;99.90;;;;;;5071504;28;20196;-69
2023/06/12 03:16:26;;;;;;;0.00;0.00;;;15.10;99.90;;;;;;5057779;28;20232;-69
2023/06/12 03:18:52;;;;;;;0.00;0.00;;;15.10;99.90;;;;;;5071662;28;20212;-68
2023/06/12 03:21:17;;;;;;;0.70;0.70;;;15.10;99.90;;;;;;5071399;28;20185;-69
2023/06/12 03:23:43;;;;;;;0.10;0.10;;;15.20;99.90;;;;;;5072485;28;20260;-69
2023/06/12 03:26:09;;;;;;;0.00;0.00;;;15.20;99.90;;;;;;5073930;28;20197;-68
2023/06/12 03:28:35;;;;;;;0.00;0.00;;;15.20;99.90;;;;;;5086709;28;20185;-69
2023/06/12 03:31:00;;;;;;;0.20;0.20;;;15.20;99.90;;;;;;5072530;28;20182;-69
2023/06/12 03:33:26;;;;;;;0.00;0.00;;;14.90;99.90;;;;;;5055443;28;20186;-68
2023/06/12 03:35:52;;;;;;;0.00;0.00;;;15.10;99.90;;;;;;5059879;28;20339;-69
2023/06/12 03:38:18;;;;;;;0.00;0.00;;;14.90;99.90;;;;;;5075342;28;20691;-69
2023/06/12 03:40:43;;;;;;;0.00;0.00;;;14.90;99.90;;;;;;5056616;28;20223;-69
2023/06/12 03:43:09;;;;;;;0.10;0.10;;;15.10;99.90;;;;;;5066546;28;20299;-69
2023/06/12 03:45:35;;;;;;;0.00;0.00;;;15.20;99.90;;;;;;5057740;28;20620;-69
2023/06/12 03:48:00;;;;;;;0.00;0.00;;;15.20;99.90;;;;;;5087839;28;20180;-69
2023/06/12 03:50:26;;;;;;;0.00;0.00;;;14.90;99.90;;;;;;5074813;28;20662;-69
2023/06/12 03:52:51;;;;;;;0.03;0.03;;;15.10;99.90;;;;;;5061579;28;20171;-68
2023/06/12 03:55:17;;;;;;;0.00;0.00;;;15.20;99.90;;;;;;5079809;28;20234;-69
2023/06/12 03:57:43;;;;;;;0.00;0.00;;;15.10;99.90;;;;;;5092573;28;20664;-69
2023/06/12 04:00:09;;;;;;;0.00;0.00;;;14.80;99.90;;;;;;5094897;28;20199;-69
2023/06/12 04:02:36;;;;;;;0.00;0.00;;;15.10;99.90;;;;;;5081736;28;20166;-68
2023/06/12 04:05:02;;;;;;;0.00;0.00;;;15.00;99.90;;;;;;5087846;28;20184;-69
2023/06/12 04:07:28;;;;;;;0.00;0.00;;;15.10;99.90;;;;;;5094944;28;20656;-68
2023/06/12 04:09:54;;;;;;;0.00;0.00;;;14.90;99.90;;;;;;5080896;28;20252;-68
2023/06/12 04:12:20;;;;;;;0.00;0.00;;;15.10;99.90;;;;;;5082533;28;20157;-69
2023/06/12 04:14:45;;;;;;;2.07;1.97;;;14.90;99.90;;;;;;5066375;28;20185;-68
2023/06/12 04:17:12;;;;;;;0.43;0.43;;;15.00;99.90;;;;;;5082505;28;20272;-69
2023/06/12 04:19:39;;;;;;;0.20;0.20;;;14.90;99.90;;;;;;5078264;28;20257;-69
2023/06/12 04:22:05;;;;;;;0.00;0.00;;;15.10;99.90;;;;;;5074368;28;20633;-69
2023/06/12 04:24:34;;;;;;;0.00;0.00;;;15.00;99.90;;;;;;5074003;28;20564;-69
2023/06/12 04:27:01;;;;;;;0.00;0.00;;;15.10;99.90;;;;;;5074199;28;20254;-69
2023/06/12 04:29:28;;;;;;;0.20;0.20;;;15.10;99.90;;;;;;5060867;28;20166;-69
2023/06/12 04:31:55;;;;;;;1.20;1.13;;;15.00;99.90;;;;;;5074363;28;20184;-68
2023/06/12 04:34:21;;;;;;;0.00;0.00;;;14.90;99.90;;;;;;5058232;28;20173;-69
2023/06/12 04:36:47;;;;;;;0.00;0.00;;;15.00;99.90;;;;;;5084764;28;20261;-69
2023/06/12 04:39:13;;;;;;;0.20;0.20;;;15.30;99.90;;;;;;5061316;28;20251;-69
2023/06/12 04:41:40;;;;;;;0.00;0.00;;;15.20;99.90;;;;;;5076570;28;20589;-68
2023/06/12 04:44:06;;;;;;;0.00;0.00;;;15.30;99.90;;;;;;5092226;28;20173;-69
2023/06/12 04:46:33;;;;;;;0.00;0.00;;;15.30;99.90;;;;;;5076398;28;20198;-69
2023/06/12 04:48:59;;;;;;;0.00;0.00;;;15.50;99.90;;;;;;5073946;28;20184;-69
2023/06/12 04:51:24;;;;;;;0.00;0.00;;;15.90;99.90;;;;;;5060624;28;20295;-69
2023/06/12 04:53:53;;;;;;;0.00;0.00;;;16.60;99.90;;;;;;5073516;28;20200;-68
2023/06/12 04:56:20;;;;;;;0.00;0.00;;;17.50;99.90;;;;;;5068966;28;20200;-68
2023/06/12 04:58:46;;;;;;;0.00;0.00;;;18.00;99.90;;;;;;5065133;28;20206;-69
2023/06/12 05:01:12;;;;;;;0.00;0.00;;;19.50;99.90;;;;;;5073527;28;20197;-69
2023/06/12 05:03:40;;;;;;;0.00;0.00;;;20.70;99.90;;;;;;5073496;28;20238;-69
2023/06/12 05:06:06;;;;;;;0.00;0.00;;;21.20;99.90;;;;;;5059807;28;20577;-69
2023/06/12 05:08:32;;;;;;;0.00;0.00;;;21.80;99.90;;;;;;5073224;28;20182;-69
2023/06/12 05:10:57;;;;;;;0.20;0.20;;;22.20;99.90;;;;;;5072528;28;20634;-69
2023/06/12 05:13:23;;;;;;;0.95;0.68;;;22.10;99.90;;;;;;5073972;28;20253;-69
2023/06/12 05:15:48;;;;;;;0.00;0.00;;;20.70;99.90;;;;;;5073315;28;20263;-69
2023/06/12 05:18:14;;;;;;;0.00;0.00;;;20.00;99.90;;;;;;5062208;28;20240;-69
2023/06/12 05:20:40;;;;;;;0.10;0.10;;;19.80;99.90;;;;;;5066568;28;20248;-69
2023/06/12 05:23:05;;;;;;;0.17;0.17;;;19.80;99.90;;;;;;5064403;28;20549;-69
2023/06/12 05:25:31;;;;;;;0.00;0.00;;;20.20;99.90;;;;;;5059221;28;20193;-69
2023/06/12 05:27:57;;;;;;;0.55;0.55;;;20.60;99.90;;;;;;5072775;28;20216;-68
2023/06/12 05:30:23;;;;;;;0.10;0.10;;;20.80;99.90;;;;;;5072876;28;20588;-69
2023/06/12 05:32:49;;;;;;;0.20;0.20;;;20.80;99.90;;;;;;5073017;28;20170;-69
2023/06/12 05:35:15;;;;;;;0.00;0.00;;;20.40;99.90;;;;;;5072516;28;20227;-69
2023/06/12 05:37:40;;;;;;;0.00;0.00;;;20.60;99.90;;;;;;5072713;28;20165;-69
2023/06/12 05:40:09;;;;;;;0.10;0.10;;;20.50;99.90;;;;;;5072728;28;20639;-69
2023/06/12 05:42:35;;;;;;;0.10;0.10;;;20.50;99.90;;;;;;5059507;28;20168;-69
2023/06/12 05:45:01;;;;;;;0.00;0.00;;;20.50;99.90;;;;;;5058639;28;20715;-69
2023/06/12 05:47:27;;;;;;;0.00;0.00;;;20.70;99.90;;;;;;5071291;28;20186;-69
2023/06/12 05:49:52;;;;;;;0.00;0.00;;;20.70;99.90;;;;;;5072366;28;20179;-69
2023/06/12 05:52:18;;;;;;;0.00;0.00;;;20.90;99.90;;;;;;5071317;28;20177;-69
2023/06/12 05:54:43;;;;;;;0.00;0.00;;;20.80;99.90;;;;;;5072114;28;20173;-68
2023/06/12 05:57:11;;;;;;;0.00;0.00;;;20.70;99.90;;;;;;5060077;28;20198;-70
2023/06/12 05:59:37;;;;;;;0.47;0.30;;;20.60;99.90;;;;;;5065606;28;20201;-68
2023/06/12 06:02:02;;;;;;;0.00;0.00;;;20.80;99.90;;;;;;5063462;28;20571;-69
2023/06/12 06:04:28;;;;;;;0.00;0.00;;;20.90;99.90;;;;;;5072111;28;20252;-69
2023/06/12 06:06:54;;;;;;;0.00;0.00;;;21.00;99.90;;;;;;5072508;28;20324;-69
2023/06/12 06:09:20;;;;;;;0.00;0.00;;;21.00;99.90;;;;;;5070952;28;20581;-69
2023/06/12 06:11:46;;;;;;;0.00;0.00;;;21.10;99.90;;;;;;5059987;28;20177;-69
2023/06/12 06:14:12;;;;;;;0.08;0.08;;;21.10;99.90;;;;;;5064642;28;20170;-70
2023/06/12 06:16:37;;;;;;;0.95;0.22;;;21.20;99.90;;;;;;5065756;28;20586;-70
2023/06/12 06:19:03;;;;;;;0.00;0.00;;;21.10;99.90;;;;;;5072010;28;20169;-68
2023/06/12 06:21:30;;;;;;;0.00;0.00;;;21.20;99.90;;;;;;5067645;28;20523;-70
2023/06/12 06:23:56;;;;;;;0.00;0.00;;;21.10;99.90;;;;;;5051429;28;20170;-70
2023/06/12 06:26:22;;;;;;;0.00;0.00;;;21.20;99.90;;;;;;5061689;28;20217;-69
2023/06/12 06:28:47;;;;;;;0.98;0.80;;;21.30;99.90;;;;;;5069581;22;20394;-68
2023/06/12 06:31:13;;;;;;;0.00;0.00;;;21.20;99.90;;;;;;5052092;28;20224;-70
2023/06/12 06:33:39;;;;;;;0.00;0.00;;;21.40;99.90;;;;;;5051950;28;20170;-68
2023/06/12 06:36:05;;;;;;;0.00;0.00;;;21.60;99.90;;;;;;5051788;28;20727;-67
2023/06/12 06:38:31;;;;;;;0.00;0.00;;;21.60;99.90;;;;;;5051830;28;20194;-69
2023/06/12 06:40:57;;;;;;;0.00;0.00;;;21.60;99.90;;;;;;5052074;28;20171;-69
2023/06/12 06:43:22;;;;;;;0.03;0.03;;;21.60;99.90;;;;;;5052079;28;20186;-68
2023/06/12 06:45:48;;;;;;;0.32;0.32;;;21.60;99.90;;;;;;5052088;28;20209;-70
2023/06/12 06:48:14;;;;;;;0.32;0.32;;;21.80;99.90;;;;;;5051808;28;20175;-68
2023/06/12 06:50:40;;;;;;;0.05;0.05;;;21.80;99.90;;;;;;5052210;28;20258;-69
2023/06/12 06:53:06;;;;;;;0.00;0.00;;;21.80;99.90;;;;;;5052006;28;20201;-68
2023/06/12 06:55:32;;;;;;;0.00;0.00;;;22.10;99.90;;;;;;5050619;28;20579;-69
2023/06/12 06:57:58;;;;;;;0.00;0.00;;;22.00;99.90;;;;;;5055005;28;20643;-70
2023/06/12 07:00:26;;;;;;;0.00;0.00;;;21.90;99.90;;;;;;5051525;28;20548;-68
2023/06/12 07:02:51;;;;;;;0.00;0.00;;;22.00;99.90;;;;;;5051754;28;20236;-69
2023/06/12 07:05:18;;;;;;;0.00;0.00;;;22.10;99.90;;;;;;5051302;28;20190;-68
2023/06/12 07:07:44;;;;;;;0.20;0.20;;;22.30;99.90;;;;;;5051475;28;20178;-68
2023/06/12 07:10:10;;;;;;;23.52;0.93;;;22.50;99.90;;;;;;5050827;28;20692;-68
2023/06/12 07:12:35;;;;;;;0.00;0.00;;;22.50;99.90;;;;;;5051650;28;20170;-70
2023/06/12 07:15:01;;;;;;;0.00;0.00;;;22.60;99.90;;;;;;5051113;28;20178;-69
2023/06/12 07:17:26;;;;;;;0.10;0.10;;;22.80;99.90;;;;;;5050089;28;20529;-69
2023/06/12 07:19:52;;;;;;;0.00;0.00;;;22.90;99.90;;;;;;5038398;28;20228;-69
2023/06/12 07:22:18;;;;;;;0.40;0.40;;;22.70;99.90;;;;;;5051377;28;20178;-67
2023/06/12 07:24:43;;;;;;;0.00;0.00;;;22.80;99.90;;;;;;5051107;28;20244;-69
2023/06/12 07:27:10;;;;;;;0.00;0.00;;;22.70;99.90;;;;;;5051042;28;20585;-69
2023/06/12 07:29:35;;;;;;;0.52;0.50;;;22.90;99.90;;;;;;5050977;28;20182;-67
2023/06/12 07:32:01;;;;;;;0.45;0.45;;;23.00;99.90;;;;;;5051877;28;20193;-69
2023/06/12 07:34:26;;;;;;;0.00;0.00;;;23.10;99.90;;;;;;5050958;28;20182;-69
2023/06/12 07:36:52;;;;;;;0.00;0.00;;;23.00;99.90;;;;;;5051370;28;20285;-69
2023/06/12 07:39:18;;;;;;;0.10;0.10;;;23.30;99.90;;;;;;5051533;28;20162;-67
2023/06/12 07:41:44;;;;;;;0.08;0.08;;;23.30;99.90;;;;;;5051487;28;20187;-69
2023/06/12 07:44:13;;;;;;;0.00;0.00;;;23.40;99.90;;;;;;5051382;28;20541;-68
2023/06/12 07:46:41;;;;;;;0.50;0.50;;;23.80;99.90;;;;;;5050724;28;20698;-68
2023/06/12 07:49:06;;;;;;;0.77;0.77;;;23.60;99.90;;;;;;5051500;28;20166;-69
2023/06/12 07:51:32;;;;;;;0.13;0.13;;;23.50;99.90;;;;;;5050978;28;20647;-68
2023/06/12 07:53:58;;;;;;;0.00;0.00;;;23.60;99.90;;;;;;5049845;28;20167;-68
2023/06/12 07:56:24;;;;;;;0.00;0.00;;;23.60;99.90;;;;;;5045690;28;20209;-68
2023/06/12 07:58:50;;;;;;;0.03;0.03;;;23.80;99.90;;;;;;5051059;28;20198;-68
2023/06/12 08:01:16;;;;;;;0.00;0.00;;;23.90;99.90;;;;;;5050582;28;20178;-68
2023/06/12 08:03:42;;;;;;;0.00;0.00;;;24.00;99.90;;;;;;5051031;28;20189;-69
2023/06/12 08:06:13;;;;;;;0.00;0.00;;;24.10;99.90;;;;;;5050712;28;20292;-68
2023/06/12 08:08:47;;;;;;;0.15;0.15;;;24.20;99.90;;;;;;5049058;28;20170;-66
2023/06/12 08:11:13;;;;;;;0.00;0.00;;;24.20;99.90;;;;;;5052632;28;20177;-67
2023/06/12 08:13:40;;;;;;;0.22;0.22;;;24.40;99.90;;;;;;5053246;28;20215;-68
2023/06/12 08:16:07;;;;;;;0.00;0.00;;;24.40;99.90;;;;;;5054284;28;20255;-69
2023/06/12 08:18:33;;;;;;;0.00;0.00;;;24.50;99.90;;;;;;5053603;28;20274;-68
2023/06/12 08:20:58;;;;;;;0.00;0.00;;;24.40;99.90;;;;;;5054341;28;20672;-69
2023/06/12 08:23:24;;;;;;;0.00;0.00;;;24.50;99.90;;;;;;5054063;28;20550;-69
2023/06/12 08:25:50;;;;;;;0.25;0.15;;;24.50;99.90;;;;;;5053488;28;20209;-69
2023/06/12 08:28:15;;;;;;;0.00;0.00;;;24.30;99.90;;;;;;5054121;28;20222;-69
2023/06/12 08:30:41;;;;;;;0.00;0.00;;;24.70;99.90;;;;;;5054381;28;20313;-66
2023/06/12 08:33:07;;;;;;;0.28;0.28;;;24.30;99.90;;;;;;5054119;28;20631;-69
2023/06/12 08:35:34;;;;;;;0.00;0.00;;;24.40;99.90;;;;;;5053736;28;20182;-67
2023/06/12 08:38:00;;;;;;;0.00;0.00;;;24.60;99.90;;;;;;5053520;28;20680;-68
2023/06/12 08:40:26;;;;;;;0.00;0.00;;;24.50;99.90;;;;;;5053854;28;20178;-68
2023/06/12 08:42:52;;;;;;;0.70;0.70;;;24.90;99.90;;;;;;5054395;28;20713;-68
2023/06/12 08:45:25;;;;;;;0.00;0.00;;;25.10;99.90;;;;;;5053160;28;20203;-68
2023/06/12 08:47:52;;;;;;;0.20;0.20;;;25.20;99.90;;;;;;5053513;28;20182;-69
2023/06/12 08:50:19;;;;;;;0.20;0.20;;;24.80;99.90;;;;;;5053561;28;20224;-68
2023/06/12 08:52:49;;;;;;;0.00;0.00;;;24.90;99.90;;;;;;5054535;28;20186;-69
2023/06/12 08:55:15;;;;;;;0.00;0.00;;;24.90;99.90;;;;;;5053185;28;20178;-68
2023/06/12 08:57:42;;;;;;;0.10;0.10;;;25.00;99.90;;;;;;5053730;28;20178;-68
2023/06/12 09:00:13;;;;;;;0.08;0.08;;;25.00;99.90;;;;;;5052301;28;20180;-68
2023/06/12 09:02:51;;;;;;;0.00;0.00;;;25.50;99.90;;;;;;5054005;28;20170;-67
2023/06/12 09:05:20;;;;;;;0.73;0.73;;;25.20;99.90;;;;;;5052218;28;20193;-69
2023/06/12 09:07:47;;;;;;;0.00;0.00;;;25.10;99.90;;;;;;5053550;28;20163;-69
2023/06/12 09:10:14;;;;;;;0.00;0.00;;;25.40;99.90;;;;;;5053125;28;20232;-69
2023/06/12 09:12:43;;;;;;;0.00;0.00;;;25.90;99.90;;;;;;5053218;28;20179;-68
2023/06/12 09:15:09;;;;;;;0.08;0.08;;;25.40;99.90;;;;;;5042103;28;20166;-66
2023/06/12 09:17:40;;;;;;;0.00;0.00;;;25.60;99.90;;;;;;5052972;28;20194;-69
2023/06/12 09:20:06;;;;;;;0.20;0.20;;;25.50;99.90;;;;;;5052734;28;20166;-69
2023/06/12 09:22:32;;;;;;;0.00;0.00;;;25.60;99.90;;;;;;5052495;28;20178;-68
2023/06/12 09:24:57;;;;;;;0.40;0.40;;;25.70;99.90;;;;;;5052706;28;20558;-69
2023/06/12 09:27:23;;;;;;;0.00;0.00;;;25.90;99.90;;;;;;5052337;28;20197;-69
2023/06/12 09:29:48;;;;;;;0.00;0.00;;;26.00;99.90;;;;;;5053207;28;20192;-68
2023/06/12 09:32:16;;;;;;;0.00;0.00;;;25.60;99.90;;;;;;5052910;28;20542;-69
2023/06/12 09:34:50;;;;;;;0.00;0.00;;;25.90;99.90;;;;;;5053161;28;20188;-68
2023/06/12 09:37:16;;;;;;;0.00;0.00;;;25.90;99.90;;;;;;5058561;28;20288;-68
2023/06/12 09:39:42;;;;;;;0.00;0.00;;;25.90;99.90;;;;;;5052691;28;20229;-68
2023/06/12 09:42:10;;;;;;;0.03;0.03;;;26.30;99.90;;;;;;5053005;28;20178;-68
2023/06/12 09:44:38;;;;;;;0.00;0.00;;;26.00;99.90;;;;;;5052204;28;20206;-68
2023/06/12 09:47:05;;;;;;;0.00;0.00;;;25.90;99.90;;;;;;5052529;28;20281;-70
2023/06/12 09:49:31;;;;;;;0.00;0.00;;;26.00;99.90;;;;;;5052387;28;20174;-67
2023/06/12 09:52:01;;;;;;;0.00;0.00;;;26.20;99.90;;;;;;5053051;28;20219;-68
2023/06/12 09:54:29;;;;;;;0.05;0.05;;;26.10;99.90;;;;;;5051330;28;20236;-69
2023/06/12 09:56:57;;;;;;;0.00;0.00;;;26.20;99.90;;;;;;5052448;28;20186;-68
2023/06/12 09:59:26;;;;;;;0.35;0.20;;;26.10;99.90;;;;;;5052218;28;20166;-68
2023/06/12 10:01:55;;;;;;;0.00;0.00;;;26.10;99.90;;;;;;5052691;28;20182;-68
2023/06/12 10:04:44;;;;;;;0.00;0.00;;;26.50;99.70;;;;;;5051094;28;20166;-68
2023/06/12 10:07:23;;;;;;;0.00;0.00;;;26.40;96.60;;;;;;5033375;28;20190;-68
2023/06/12 10:09:50;;;;;;;0.28;0.28;;;26.50;96.00;;;;;;5047031;28;20209;-68
2023/06/12 10:12:17;;;;;;;0.00;0.00;;;26.60;96.00;;;;;;5047541;28;20191;-67
2023/06/12 10:14:44;;;;;;;0.00;0.00;;;26.30;94.00;;;;;;5042964;28;20202;-69
2023/06/12 10:17:10;;;;;;;0.00;0.00;;;26.50;95.50;;;;;;5046960;28;20202;-70
2023/06/12 10:19:46;;;;;;;0.03;0.03;;;26.60;93.60;;;;;;5051577;28;20194;-69
2023/06/12 10:22:12;;;;;;;0.00;0.00;;;26.70;91.60;;;;;;5052102;28;20177;-71
2023/06/12 10:24:37;;;;;;;0.20;0.20;;;26.40;92.00;;;;;;5051497;28;20186;-71
2023/06/12 10:27:03;;;;;;;0.00;0.00;;;26.90;94.10;;;;;;5049468;28;20194;-71
2023/06/12 10:29:31;;;;;;;0.00;0.00;;;27.00;91.40;;;;;;5051746;28;20194;-71
2023/06/12 10:32:10;;;;;;;0.15;0.15;;;26.90;90.50;;;;;;5045636;28;20162;-70
2023/06/12 10:34:40;;;;;;;3.33;1.65;;;27.00;90.30;;;;;;5050469;28;20249;-69
2023/06/12 10:37:38;;;;;;;0.00;0.00;;;26.60;90.10;;;;;;5051749;28;20197;-70
2023/06/12 10:40:20;;;;;;;0.55;0.55;;;26.60;88.60;;;;;;5052125;28;20194;-71
2023/06/12 10:42:47;;;;;;;0.00;0.00;;;27.30;88.80;;;;;;5038664;28;20213;-71
2023/06/12 10:45:25;;;;;;;0.00;0.00;;;27.60;86.30;;;;;;5051567;28;20269;-70
2023/06/12 10:48:05;;;;;;;0.00;0.00;;;27.10;83.10;;;;;;5052051;28;20166;-73
2023/06/12 10:50:34;;;;;;;0.00;0.00;;;27.20;86.60;;;;;;5051566;28;20166;-71
2023/06/12 10:53:09;;;;;;;0.15;0.00;;;27.80;85.40;;;;;;5042585;28;20163;-70
2023/06/12 10:55:36;;;;;;;0.00;0.00;;;27.60;83.20;;;;;;5051315;28;20185;-71
2023/06/12 10:58:04;;;;;;;0.63;0.63;;;27.80;84.30;;;;;;5049406;28;20183;-71
2023/06/12 11:00:38;;;;;;;0.00;0.00;;;27.30;84.10;;;;;;5048270;28;20262;-71
2023/06/12 11:03:11;;;;;;;0.10;0.10;;;27.20;84.90;;;;;;5048578;28;20236;-70
2023/06/12 11:05:37;;;;;;;0.10;0.10;;;26.90;86.80;;;;;;5046884;28;20323;-71
2023/06/12 11:08:05;;;;;;;0.00;0.00;;;27.30;86.90;;;;;;5049302;28;20587;-73
2023/06/12 11:10:32;;;;;;;0.40;0.40;;;27.60;81.30;;;;;;5047389;28;20538;-72
2023/06/12 11:12:58;;;;;;;0.00;0.00;;;27.90;81.30;;;;;;5045935;28;20167;-68
2023/06/12 11:15:23;;;;;;;0.00;0.00;;;27.90;82.10;;;;;;5051139;28;20182;-70
2023/06/12 11:17:50;;;;;;;0.10;0.10;;;28.20;75.60;;;;;;5051147;28;20186;-72
2023/06/12 11:20:18;;;;;;;0.00;0.00;;;28.40;78.70;;;;;;5051396;28;20646;-72
2023/06/12 11:22:46;;;;;;;0.08;0.08;;;28.70;70.20;;;;;;5051387;28;20181;-71
2023/06/12 11:25:12;;;;;;;0.08;0.08;;;28.10;68.40;;;;;;5047239;28;20230;-70
2023/06/12 11:27:37;;;;;;;0.15;0.15;;;28.30;74.20;;;;;;5049500;28;20936;-72
2023/06/12 11:30:11;;;;;;;0.05;0.05;;;28.40;72.50;;;;;;5050108;28;20262;-71
2023/06/12 11:32:36;;;;;;;0.38;0.38;;;28.60;73.80;;;;;;5051056;28;20174;-72
2023/06/12 11:35:04;;;;;;;0.05;0.05;;;28.50;74.00;;;;;;5049621;28;20533;-71
2023/06/12 11:37:30;;;;;;;0.13;0.13;;;28.50;74.10;;;;;;5050481;28;20336;-71
2023/06/12 11:40:00;;;;;;;0.00;0.00;;;28.10;71.00;;;;;;5043831;28;20178;-71
2023/06/12 11:42:26;;;;;;;0.00;0.00;;;28.30;73.20;;;;;;5047748;28;20174;-70
2023/06/12 11:44:51;;;;;;;0.00;0.00;;;28.10;72.30;;;;;;5050695;28;20202;-73
2023/06/12 11:47:19;;;;;;;0.20;0.20;;;28.40;71.90;;;;;;5051444;28;20213;-72
2023/06/12 11:49:44;;;;;;;0.10;0.10;;;28.50;69.20;;;;;;5049092;28;20171;-71
2023/06/12 11:52:10;;;;;;;0.10;0.10;;;28.60;70.10;;;;;;5050839;28;20194;-72
2023/06/12 11:55:08;;;;;;;0.00;0.00;;;27.90;69.70;;;;;;5054673;28;20201;-72
2023/06/12 11:57:35;;;;;;;0.13;0.13;;;28.20;69.00;;;;;;5052724;28;20245;-73
2023/06/12 12:00:13;;;;;;;0.10;0.10;;;27.90;70.40;;;;;;5054181;28;20273;-71
2023/06/12 12:02:42;;;;;;;0.00;0.00;;;28.10;69.60;;;;;;5052419;28;20563;-70
2023/06/12 12:05:16;;;;;;;0.10;0.10;;;28.20;67.90;;;;;;5050099;28;20194;-72
2023/06/12 12:07:45;;;;;;;0.00;0.00;;;27.80;73.30;;;;;;5050387;28;20224;-73
2023/06/12 12:10:12;;;;;;;0.00;0.00;;;27.90;70.10;;;;;;5050678;28;20416;-71
2023/06/12 12:12:45;;;;;;;0.43;0.43;;;27.90;71.00;;;;;;5054561;28;20174;-71
2023/06/12 12:15:15;;;;;;;0.50;0.35;;;28.30;68.70;;;;;;5051597;28;20424;-71
2023/06/12 12:17:42;;;;;;;0.00;0.00;;;28.60;65.10;;;;;;5050723;28;20174;-72
2023/06/12 12:20:19;;;;;;;0.08;0.08;;;29.10;66.10;;;;;;5054091;28;20599;-72
2023/06/12 12:22:53;;;;;;;0.00;0.00;;;29.00;64.80;;;;;;5049585;28;20197;-72
2023/06/12 12:25:37;;;;;;;0.52;0.52;;;29.20;66.80;;;;;;5046124;28;20205;-72
2023/06/12 12:28:03;;;;;;;0.10;0.10;;;29.80;59.00;;;;;;5052110;28;20170;-73
2023/06/12 12:30:30;;;;;;;0.00;0.00;;;29.60;58.90;;;;;;5053592;28;20254;-70
2023/06/12 12:32:57;;;;;;;5.30;1.65;;;29.10;59.30;;;;;;5069507;22;20272;-68
2023/06/12 12:35:24;;;;;;;0.13;0.13;;;29.20;60.30;;;;;;5050784;28;20181;-67
2023/06/12 12:37:52;;;;;;;0.10;0.10;;;29.90;60.30;;;;;;5054298;28;20236;-68
2023/06/12 12:40:18;;;;;;;0.00;0.00;;;29.90;58.60;;;;;;5055366;28;20244;-68
2023/06/12 12:42:48;;;;;;;0.00;0.00;;;30.00;59.50;;;;;;5053853;28;20175;-66
2023/06/12 12:45:15;;;;;;;0.10;0.10;;;29.70;55.10;;;;;;5054224;28;20622;-68
2023/06/12 12:47:44;;;;;;;0.75;0.43;;;29.20;55.30;;;;;;5054508;28;20167;-67
2023/06/12 12:50:11;;;;;;;0.13;0.13;;;28.80;57.20;;;;;;5054121;28;20166;-68